createdAt,value
2023-09-03T00:01:27.338Z,25.74
2023-09-03T00:04:16.030Z,25.77
2023-09-03T00:07:04.969Z,25.70
2023-09-03T00:09:53.657Z,25.69
2023-09-03T00:12:43.801Z,25.63
2023-09-03T00:15:32.508Z,25.63
2023-09-03T00:18:21.440Z,25.65
2023-09-03T00:21:10.543Z,25.65
2023-09-03T00:23:59.208Z,25.62
2023-09-03T00:26:47.914Z,25.63
2023-09-03T00:29:38.011Z,25.59
2023-09-03T00:32:26.759Z,25.58
2023-09-03T00:35:15.444Z,25.57
2023-09-03T00:38:04.081Z,25.57
2023-09-03T00:40:52.745Z,25.55
2023-09-03T00:43:41.452Z,25.55
2023-09-03T00:46:32.064Z,25.56
2023-09-03T00:49:24.468Z,25.51
2023-09-03T00:52:13.366Z,25.50
2023-09-03T00:55:02.176Z,25.50
2023-09-03T00:57:51.026Z,25.48
2023-09-03T01:00:39.919Z,25.47
2023-09-03T01:03:30.047Z,25.43
2023-09-03T01:06:18.813Z,25.41
2023-09-03T01:09:07.620Z,25.43
2023-09-03T01:12:05.321Z,25.38
2023-09-03T01:15:00.669Z,25.34
2023-09-03T01:17:56.354Z,25.30
2023-09-03T01:20:53.278Z,25.31
2023-09-03T01:23:47.794Z,25.31
2023-09-03T01:26:52.738Z,25.28
2023-09-03T01:29:44.811Z,25.28
2023-09-03T01:32:34.264Z,25.25
2023-09-03T01:35:24.906Z,25.28
2023-09-03T01:38:15.702Z,25.26
2023-09-03T01:41:04.449Z,25.23
2023-09-03T01:43:53.217Z,25.25
2023-09-03T01:46:48.274Z,25.22
2023-09-03T01:49:43.175Z,25.19
2023-09-03T01:52:39.477Z,25.21
2023-09-03T01:55:31.473Z,25.22
2023-09-03T01:58:23.337Z,25.21
2023-09-03T02:01:13.261Z,25.21
2023-09-03T02:04:03.871Z,25.23
2023-09-03T02:06:52.545Z,25.31
2023-09-03T02:09:41.178Z,25.26
2023-09-03T02:12:29.835Z,25.26
2023-09-03T02:15:18.729Z,25.23
2023-09-03T02:18:07.637Z,25.26
2023-09-03T02:20:57.720Z,25.39
2023-09-03T02:23:46.351Z,25.45
2023-09-03T02:26:35.091Z,25.39
2023-09-03T02:29:23.723Z,25.31
2023-09-03T02:32:12.479Z,25.37
2023-09-03T02:35:01.123Z,25.39
2023-09-03T02:37:51.159Z,25.27
2023-09-03T02:40:39.781Z,25.31
2023-09-03T02:43:28.440Z,25.19
2023-09-03T02:46:17.108Z,25.22
2023-09-03T02:49:05.826Z,25.13
2023-09-03T02:51:54.498Z,25.12
2023-09-03T02:54:44.549Z,25.12
2023-09-03T02:57:33.213Z,25.17
2023-09-03T03:00:21.918Z,25.19
2023-09-03T03:03:10.622Z,25.12
2023-09-03T03:05:59.408Z,25.09
2023-09-03T03:08:48.154Z,25.08
2023-09-03T03:11:38.333Z,25.04
2023-09-03T03:14:27.048Z,25.12
2023-09-03T03:17:15.781Z,24.99
2023-09-03T03:20:04.831Z,24.98
2023-09-03T03:22:53.529Z,24.99
2023-09-03T03:25:42.235Z,24.96
2023-09-03T03:28:35.100Z,24.97
2023-09-03T03:31:24.614Z,24.98
2023-09-03T03:34:13.399Z,24.96
2023-09-03T03:37:02.163Z,24.95
2023-09-03T03:39:51.988Z,25.02
2023-09-03T03:42:40.765Z,24.99
2023-09-03T03:45:30.883Z,24.96
2023-09-03T03:48:19.956Z,24.98
2023-09-03T03:51:09.087Z,25.01
2023-09-03T03:54:00.159Z,24.95
2023-09-03T03:56:48.888Z,25.03
2023-09-03T03:59:37.561Z,25.01
2023-09-03T04:02:27.574Z,25.12
2023-09-03T04:05:16.526Z,25.10
2023-09-03T04:08:05.517Z,25.02
2023-09-03T04:11:00.885Z,25.02
2023-09-03T04:13:49.580Z,25.09
2023-09-03T04:16:38.328Z,25.06
2023-09-03T04:19:28.451Z,25.04
2023-09-03T04:22:17.086Z,25.17
2023-09-03T04:25:06.911Z,25.09
2023-09-03T04:27:55.627Z,25.03
2023-09-03T04:30:44.576Z,25.09
2023-09-03T04:33:33.525Z,25.14
2023-09-03T04:36:23.781Z,25.07
2023-09-03T04:39:12.846Z,24.97
2023-09-03T04:42:01.536Z,24.94
2023-09-03T04:44:50.158Z,24.95
2023-09-03T04:47:38.857Z,24.90
2023-09-03T04:50:27.974Z,25.01
2023-09-03T04:53:18.021Z,25.11
2023-09-03T04:56:15.810Z,24.95
2023-09-03T04:59:04.568Z,24.95
2023-09-03T05:01:53.245Z,24.97
2023-09-03T05:04:41.979Z,25.00
2023-09-03T05:07:31.626Z,24.99
2023-09-03T05:10:21.907Z,25.03
2023-09-03T05:13:10.814Z,25.11
2023-09-03T05:15:59.502Z,25.14
2023-09-03T05:18:48.235Z,25.08
2023-09-03T05:21:36.989Z,25.13
2023-09-03T05:24:25.595Z,25.18
2023-09-03T05:27:15.593Z,25.26
2023-09-03T05:30:04.628Z,25.26
2023-09-03T05:32:53.368Z,25.27
2023-09-03T05:35:43.629Z,25.22
2023-09-03T05:38:32.307Z,25.13
2023-09-03T05:41:20.946Z,25.20
2023-09-03T05:44:11.266Z,25.16
2023-09-03T05:46:59.972Z,25.20
2023-09-03T05:49:49.164Z,25.20
2023-09-03T05:52:37.809Z,24.98
2023-09-03T05:55:26.374Z,24.98
2023-09-03T05:58:15.057Z,24.94
2023-09-03T06:01:07.097Z,24.86
2023-09-03T06:03:55.773Z,24.83
2023-09-03T06:06:45.435Z,24.87
2023-09-03T06:09:34.089Z,24.88
2023-09-03T06:12:22.754Z,24.86
2023-09-03T06:15:11.780Z,24.92
2023-09-03T06:18:01.983Z,24.95
2023-09-03T06:20:51.031Z,25.04
2023-09-03T06:23:39.660Z,24.97
2023-09-03T06:26:28.319Z,24.97
2023-09-03T06:29:16.911Z,24.99
2023-09-03T06:32:06.048Z,24.97
2023-09-03T06:34:56.088Z,24.98
2023-09-03T06:37:44.685Z,24.98
2023-09-03T06:40:33.859Z,25.08
2023-09-03T06:43:22.597Z,25.14
2023-09-03T06:46:11.427Z,25.26
2023-09-03T06:49:00.013Z,25.27
2023-09-03T06:51:50.728Z,25.25
2023-09-03T06:54:39.306Z,25.26
2023-09-03T06:57:29.526Z,25.13
2023-09-03T07:00:18.877Z,25.10
2023-09-03T07:03:07.625Z,25.05
2023-09-03T07:05:56.330Z,25.04
2023-09-03T07:08:46.372Z,25.01
2023-09-03T07:11:35.033Z,25.02
2023-09-03T07:14:23.678Z,24.95
2023-09-03T07:17:12.312Z,24.93
2023-09-03T07:20:01.420Z,24.93
2023-09-03T07:22:50.101Z,24.88
2023-09-03T07:25:40.155Z,24.83
2023-09-03T07:28:28.771Z,24.79
2023-09-03T07:31:17.493Z,24.75
2023-09-03T07:34:06.373Z,24.75
2023-09-03T07:36:55.010Z,24.79
2023-09-03T07:39:43.886Z,24.78
2023-09-03T07:42:34.256Z,24.76
2023-09-03T07:45:22.971Z,24.71
2023-09-03T07:48:12.248Z,24.77
2023-09-03T07:51:00.991Z,24.76
2023-09-03T07:53:50.082Z,24.78
2023-09-03T07:56:38.855Z,24.85
2023-09-03T07:59:28.898Z,24.84
2023-09-03T08:02:17.686Z,24.81
2023-09-03T08:05:07.853Z,24.78
2023-09-03T08:07:56.560Z,24.80
2023-09-03T08:10:45.240Z,24.78
2023-09-03T08:13:34.177Z,24.81
2023-09-03T08:16:24.334Z,24.91
2023-09-03T08:19:13.613Z,24.83
2023-09-03T08:22:03.908Z,24.88
2023-09-03T08:24:52.720Z,24.90
2023-09-03T08:27:41.995Z,24.92
2023-09-03T08:30:30.763Z,24.89
2023-09-03T08:33:21.106Z,24.91
2023-09-03T08:36:10.090Z,24.87
2023-09-03T08:38:58.738Z,24.93
2023-09-03T08:41:48.524Z,24.98
2023-09-03T08:44:39.386Z,24.95
2023-09-03T08:47:29.278Z,24.94
2023-09-03T08:50:19.778Z,24.98
2023-09-03T08:53:09.473Z,25.03
2023-09-03T08:55:58.601Z,25.08
2023-09-03T08:58:47.256Z,24.98
2023-09-03T09:04:31.133Z,25.07
2023-09-03T09:07:22.701Z,25.14
2023-09-03T09:10:13.217Z,25.15
2023-09-03T09:13:06.771Z,25.16
2023-09-03T09:15:56.146Z,25.12
2023-09-03T09:18:49.768Z,25.10
2023-09-03T09:21:38.754Z,25.15
2023-09-03T09:24:28.943Z,25.18
2023-09-03T09:27:19.109Z,25.20
2023-09-03T09:30:15.529Z,25.17
2023-09-03T09:33:05.970Z,25.12
2023-09-03T09:35:55.339Z,25.13
2023-09-03T09:38:44.545Z,25.10
2023-09-03T09:41:38.869Z,25.16
2023-09-03T09:44:27.697Z,25.20
2023-09-03T09:47:19.772Z,25.14
2023-09-03T09:50:09.027Z,25.17
2023-09-03T09:53:00.326Z,25.29
2023-09-03T09:55:49.964Z,25.39
2023-09-03T09:58:41.942Z,25.42
2023-09-03T10:01:44.959Z,25.36
2023-09-03T10:04:33.799Z,25.46
2023-09-03T10:07:23.977Z,25.52
2023-09-03T10:10:13.134Z,25.57
2023-09-03T10:13:03.719Z,25.61
2023-09-03T10:15:55.233Z,25.68
2023-09-03T10:18:53.303Z,25.62
2023-09-03T10:21:55.147Z,25.92
2023-09-03T10:24:46.856Z,25.95
2023-09-03T10:27:39.377Z,25.84
2023-09-03T10:30:32.236Z,25.73
2023-09-03T10:33:23.008Z,25.69
2023-09-03T10:36:17.928Z,25.89
2023-09-03T10:39:24.705Z,26.12
2023-09-03T10:42:32.848Z,26.10
2023-09-03T10:45:21.959Z,25.98
2023-09-03T10:48:12.185Z,25.93
2023-09-03T10:51:04.096Z,25.86
2023-09-03T10:53:52.739Z,25.77
2023-09-03T10:57:19.033Z,25.73
2023-09-03T11:00:19.354Z,25.82
2023-09-03T11:03:18.048Z,25.79
2023-09-03T11:06:19.379Z,25.76
2023-09-03T11:09:26.636Z,25.84
2023-09-03T11:12:16.932Z,25.88
2023-09-03T11:15:08.027Z,25.81
2023-09-03T11:17:58.869Z,25.79
2023-09-03T11:20:51.383Z,25.73
2023-09-03T11:23:42.047Z,25.85
2023-09-03T11:26:30.940Z,25.84
2023-09-03T11:29:24.533Z,25.97
2023-09-03T11:32:13.370Z,25.96
2023-09-03T11:35:02.161Z,25.87
2023-09-03T11:37:52.112Z,25.88
2023-09-03T11:40:43.104Z,25.98
2023-09-03T11:43:33.434Z,26.04
2023-09-03T11:46:22.529Z,26.01
2023-09-03T11:49:11.201Z,26.15
2023-09-03T11:52:12.146Z,26.15
2023-09-03T11:55:01.099Z,26.22
2023-09-03T11:57:51.940Z,26.06
2023-09-03T12:00:41.627Z,26.29
2023-09-03T12:03:30.619Z,26.19
2023-09-03T12:06:19.698Z,26.37
2023-09-03T12:09:08.524Z,26.25
2023-09-03T12:11:57.247Z,26.20
2023-09-03T12:14:47.348Z,26.12
2023-09-03T12:17:36.116Z,26.25
2023-09-03T12:20:35.194Z,26.14
2023-09-03T12:23:24.047Z,26.19
2023-09-03T12:26:17.796Z,26.15
2023-09-03T12:29:07.300Z,26.11
2023-09-03T12:31:57.383Z,26.16
2023-09-03T12:34:50.395Z,26.19
2023-09-03T12:37:41.975Z,26.12
2023-09-03T12:40:30.617Z,26.12
2023-09-03T12:43:19.515Z,26.13
2023-09-03T12:46:08.449Z,26.14
2023-09-03T12:48:59.772Z,26.08
2023-09-03T12:51:49.029Z,26.25
2023-09-03T12:54:37.693Z,26.17
2023-09-03T12:57:27.853Z,26.19
2023-09-03T13:00:16.902Z,26.09
2023-09-03T13:03:06.005Z,26.22
2023-09-03T13:05:56.675Z,26.24
2023-09-03T13:08:45.354Z,26.40
2023-09-03T13:11:34.109Z,26.47
2023-09-03T13:14:22.764Z,26.52
2023-09-03T13:17:11.431Z,26.58
2023-09-03T13:20:00.759Z,26.70
2023-09-03T13:22:50.843Z,26.68
2023-09-03T13:25:41.274Z,26.84
2023-09-03T13:28:30.840Z,26.78
2023-09-03T13:31:22.540Z,26.86
2023-09-03T13:34:11.864Z,26.74
2023-09-03T13:37:00.878Z,26.79
2023-09-03T13:39:50.922Z,26.91
2023-09-03T13:42:40.226Z,26.91
2023-09-03T13:45:28.856Z,26.94
2023-09-03T13:48:18.035Z,26.96
2023-09-03T13:51:13.452Z,26.99
2023-09-03T13:54:02.247Z,26.97
2023-09-03T13:56:52.365Z,26.86
2023-09-03T13:59:41.124Z,26.94
2023-09-03T14:02:31.069Z,26.95
2023-09-03T14:05:22.151Z,27.09
2023-09-03T14:08:10.745Z,27.11
2023-09-03T14:11:00.583Z,27.02
2023-09-03T14:13:50.699Z,27.13
2023-09-03T14:16:39.686Z,27.21
2023-09-03T14:19:28.497Z,27.30
2023-09-03T14:22:17.601Z,27.24
2023-09-03T14:25:06.817Z,27.30
2023-09-03T14:27:55.899Z,27.32
2023-09-03T14:30:46.840Z,27.02
2023-09-03T14:33:35.508Z,26.78
2023-09-03T14:36:24.285Z,26.70
2023-09-03T14:39:13.241Z,26.70
2023-09-03T14:42:01.943Z,26.71
2023-09-03T14:44:50.535Z,26.60
2023-09-03T14:47:41.236Z,26.65
2023-09-03T14:50:29.933Z,26.72
2023-09-03T14:53:18.640Z,26.59
2023-09-03T14:56:07.831Z,26.55
2023-09-03T14:58:56.509Z,26.78
2023-09-03T15:01:45.342Z,26.67
2023-09-03T15:04:36.409Z,26.86
2023-09-03T15:07:25.266Z,26.86
2023-09-03T15:10:14.081Z,26.93
2023-09-03T15:13:03.228Z,26.98
2023-09-03T15:15:51.881Z,27.00
2023-09-03T15:18:40.763Z,26.96
2023-09-03T15:21:31.143Z,26.94
2023-09-03T15:24:19.770Z,27.00
2023-09-03T15:27:08.484Z,26.96
2023-09-03T15:29:57.175Z,26.93
2023-09-03T15:32:45.866Z,26.99
2023-09-03T15:35:38.578Z,27.02
2023-09-03T15:38:28.671Z,26.85
2023-09-03T15:41:17.323Z,26.87
2023-09-03T15:44:06.133Z,26.94
2023-09-03T15:46:54.900Z,26.84
2023-09-03T15:49:43.501Z,26.78
2023-09-03T15:52:32.119Z,26.87
2023-09-03T15:55:22.460Z,26.77
2023-09-03T15:58:11.156Z,26.70
2023-09-03T16:01:06.353Z,26.71
2023-09-03T16:03:55.075Z,26.64
2023-09-03T16:06:44.397Z,26.71
2023-09-03T16:09:33.058Z,26.59
2023-09-03T16:12:23.148Z,26.63
2023-09-03T16:15:12.930Z,26.59
2023-09-03T16:18:01.661Z,26.61
2023-09-03T16:20:52.388Z,26.64
2023-09-03T16:23:41.010Z,26.65
2023-09-03T16:26:29.729Z,26.57
2023-09-03T16:29:20.162Z,26.48
2023-09-03T16:32:09.006Z,26.54
2023-09-03T16:34:59.246Z,26.52
2023-09-03T16:37:48.040Z,26.54
2023-09-03T16:40:36.794Z,26.54
2023-09-03T16:43:27.510Z,26.54
2023-09-03T16:46:19.870Z,26.49
2023-09-03T16:49:08.582Z,26.52
2023-09-03T16:51:57.262Z,26.52
2023-09-03T16:54:46.006Z,26.56
2023-09-03T16:57:34.755Z,26.57
2023-09-03T17:00:24.092Z,26.52
2023-09-03T17:03:14.097Z,26.55
2023-09-03T17:06:03.421Z,26.58
2023-09-03T17:08:52.294Z,26.53
2023-09-03T17:11:40.916Z,26.55
2023-09-03T17:14:29.905Z,26.56
2023-09-03T17:17:18.508Z,26.58
2023-09-03T17:20:10.207Z,26.62
2023-09-03T17:23:00.862Z,26.63
2023-09-03T17:25:52.283Z,26.60
2023-09-03T17:28:40.987Z,26.59
2023-09-03T17:31:31.368Z,26.61
2023-09-03T17:34:20.355Z,26.61
2023-09-03T17:37:10.383Z,26.64
2023-09-03T17:39:59.722Z,26.61
2023-09-03T17:42:48.372Z,26.62
2023-09-03T17:45:41.318Z,26.62
2023-09-03T17:48:30.305Z,26.57
2023-09-03T17:51:19.138Z,26.56
2023-09-03T17:54:09.332Z,26.58
2023-09-03T17:56:58.023Z,26.54
2023-09-03T17:59:46.635Z,26.54
2023-09-03T18:02:35.266Z,26.53
2023-09-03T18:05:24.984Z,26.51
2023-09-03T18:08:13.856Z,26.53
2023-09-03T18:11:03.922Z,26.50
2023-09-03T18:13:52.812Z,26.49
2023-09-03T18:16:41.500Z,26.45
2023-09-03T18:19:30.273Z,26.45
2023-09-03T18:22:19.427Z,26.45
2023-09-03T18:25:08.776Z,26.44
2023-09-03T18:27:58.882Z,26.45
2023-09-03T18:30:47.610Z,26.44
2023-09-03T18:33:36.263Z,26.42
2023-09-03T18:36:24.916Z,26.47
2023-09-03T18:39:13.892Z,26.51
2023-09-03T18:42:02.870Z,26.49
2023-09-03T18:44:52.976Z,26.44
2023-09-03T18:47:41.753Z,26.48
2023-09-03T18:50:30.431Z,26.54
2023-09-03T18:53:20.591Z,26.60
2023-09-03T18:56:09.556Z,26.56
2023-09-03T18:58:58.352Z,26.57
2023-09-03T19:01:48.612Z,26.59
2023-09-03T19:04:37.781Z,26.58
2023-09-03T19:07:26.445Z,26.59
2023-09-03T19:10:15.648Z,26.63
2023-09-03T19:13:07.973Z,26.60
2023-09-03T19:15:57.398Z,26.60
2023-09-03T19:18:47.667Z,26.65
2023-09-03T19:21:36.455Z,26.62
2023-09-03T19:24:26.346Z,26.63
2023-09-03T19:27:16.204Z,26.66
2023-09-03T19:30:05.887Z,26.63
2023-09-03T19:32:56.733Z,26.63
2023-09-03T19:35:46.767Z,26.63
2023-09-03T19:38:35.994Z,26.64
2023-09-03T19:41:25.125Z,26.62
2023-09-03T19:44:14.388Z,26.63
2023-09-03T19:47:05.229Z,26.63
2023-09-03T19:49:54.560Z,26.63
2023-09-03T19:52:45.279Z,26.65
2023-09-03T19:55:35.237Z,26.64
2023-09-03T19:58:23.944Z,26.62
2023-09-03T20:01:13.501Z,26.66
2023-09-03T20:04:02.287Z,26.62
2023-09-03T20:06:51.731Z,26.61
2023-09-03T20:09:46.530Z,26.58
2023-09-03T20:12:35.206Z,26.60
2023-09-03T20:15:23.909Z,26.59
2023-09-03T20:18:12.717Z,26.55
2023-09-03T20:21:03.190Z,26.65
2023-09-03T20:23:52.022Z,26.57
2023-09-03T20:26:42.446Z,26.54
2023-09-03T20:29:32.875Z,26.55
2023-09-03T20:32:21.581Z,26.48
2023-09-03T20:35:10.778Z,26.47
2023-09-03T20:37:59.447Z,26.47
2023-09-03T20:40:48.073Z,26.47
2023-09-03T20:43:38.191Z,26.47
2023-09-03T20:46:26.971Z,26.43
2023-09-03T20:49:15.675Z,26.45
2023-09-03T20:52:04.371Z,26.45
2023-09-03T20:54:53.031Z,26.42
2023-09-03T20:57:41.971Z,26.42
2023-09-03T21:00:32.188Z,26.40
2023-09-03T21:03:21.008Z,26.40
2023-09-03T21:06:09.785Z,26.40
2023-09-03T21:08:58.435Z,26.79
2023-09-03T21:11:47.075Z,26.87
2023-09-03T21:14:35.830Z,26.89
2023-09-03T21:17:25.925Z,26.85
2023-09-03T21:20:16.344Z,26.80
2023-09-03T21:23:05.348Z,26.79
2023-09-03T21:25:54.040Z,26.73
2023-09-03T21:28:42.927Z,26.77
2023-09-03T21:31:31.688Z,26.78
2023-09-03T21:34:21.777Z,26.90
2023-09-03T21:37:10.485Z,26.94
2023-09-03T21:39:59.653Z,27.00
2023-09-03T21:42:51.953Z,26.95
2023-09-03T21:45:40.748Z,26.93
2023-09-03T21:48:29.579Z,26.65
2023-09-03T21:51:21.008Z,26.42
2023-09-03T21:54:10.351Z,26.35
2023-09-03T21:56:59.009Z,26.30
2023-09-03T21:59:47.767Z,26.21
2023-09-03T22:02:36.831Z,26.17
2023-09-03T22:05:25.649Z,26.18
2023-09-03T22:08:15.725Z,26.16
2023-09-03T22:11:04.795Z,26.18
2023-09-03T22:13:53.504Z,26.18
2023-09-03T22:16:42.179Z,26.11
2023-09-03T22:19:30.858Z,26.06
2023-09-03T22:22:19.540Z,26.02
2023-09-03T22:25:10.207Z,26.07
2023-09-03T22:27:58.975Z,26.02
2023-09-03T22:30:47.719Z,26.03
2023-09-03T22:33:36.418Z,25.96
2023-09-03T22:36:25.097Z,25.98
2023-09-03T22:39:13.849Z,25.93
2023-09-03T22:42:04.054Z,25.92
2023-09-03T22:44:52.745Z,25.86
2023-09-03T22:47:41.438Z,25.91
2023-09-03T22:50:30.147Z,25.91
2023-09-03T22:53:19.015Z,25.83
2023-09-03T22:56:08.387Z,25.87
2023-09-03T22:58:58.475Z,25.88
2023-09-03T23:01:47.320Z,25.99
2023-09-03T23:04:36.064Z,25.97
2023-09-03T23:07:24.816Z,25.88
2023-09-03T23:10:13.525Z,25.90
2023-09-03T23:13:02.219Z,25.87
2023-09-03T23:15:52.246Z,25.87
2023-09-03T23:18:40.970Z,25.89
2023-09-03T23:21:30.313Z,25.86
2023-09-03T23:24:18.997Z,25.83
2023-09-03T23:27:07.619Z,25.86
2023-09-03T23:29:56.346Z,25.83
2023-09-03T23:32:47.292Z,25.82
2023-09-03T23:35:36.065Z,25.80
2023-09-03T23:38:24.892Z,25.77
2023-09-03T23:41:13.831Z,25.76
2023-09-03T23:44:02.587Z,25.77
2023-09-03T23:47:02.815Z,25.73
2023-09-03T23:50:01.260Z,25.75
2023-09-03T23:52:49.886Z,25.73
2023-09-03T23:55:38.497Z,25.72
2023-09-03T23:58:27.218Z,25.69
